createdAt,value
2018-07-21T00:02:22.052Z,20.00
2018-07-21T00:07:18.572Z,20.00
2018-07-21T00:09:46.924Z,20.00
2018-07-21T00:12:15.314Z,20.00
2018-07-21T00:14:43.723Z,20.10
2018-07-21T00:17:12.060Z,20.10
2018-07-21T00:19:40.525Z,20.20
2018-07-21T00:24:36.996Z,20.30
2018-07-21T00:27:05.339Z,20.30
2018-07-21T00:29:33.757Z,20.30
2018-07-21T00:32:02.145Z,20.30
2018-07-21T00:34:30.459Z,20.20
2018-07-21T00:36:58.834Z,20.10
2018-07-21T00:39:27.204Z,20.00
2018-07-21T00:41:55.693Z,20.00
2018-07-21T00:44:24.092Z,19.90
2018-07-21T00:46:52.478Z,19.90
2018-07-21T00:49:20.874Z,19.80
2018-07-21T00:51:49.380Z,19.70
2018-07-21T00:54:17.746Z,19.60
2018-07-21T00:56:46.163Z,19.60
2018-07-21T00:59:14.490Z,19.50
2018-07-21T01:01:42.960Z,19.40
2018-07-21T01:04:11.303Z,19.40
2018-07-21T01:06:39.652Z,19.50
2018-07-21T01:09:09.401Z,19.50
2018-07-21T01:11:37.792Z,19.50
2018-07-21T01:14:06.345Z,19.50
2018-07-21T01:16:41.361Z,19.50
2018-07-21T01:19:09.800Z,19.50
2018-07-21T01:21:38.135Z,19.40
2018-07-21T01:24:09.682Z,19.40
2018-07-21T01:26:38.079Z,19.30
2018-07-21T01:29:06.411Z,19.40
2018-07-21T01:31:34.771Z,19.30
2018-07-21T01:34:03.104Z,19.30
2018-07-21T01:36:38.017Z,19.30
2018-07-21T01:39:08.486Z,19.30
2018-07-21T01:41:36.856Z,19.20
2018-07-21T01:44:05.336Z,19.20
2018-07-21T01:46:33.788Z,19.10
2018-07-21T01:49:02.138Z,19.00
2018-07-21T01:53:58.721Z,18.80
2018-07-21T01:56:27.084Z,18.70
2018-07-21T01:58:55.966Z,18.70
2018-07-21T02:03:52.370Z,18.60
2018-07-21T02:06:20.828Z,18.50
2018-07-21T02:08:49.172Z,18.50
2018-07-21T02:13:46.352Z,18.30
2018-07-21T02:16:14.712Z,18.30
2018-07-21T02:18:43.052Z,18.40
2018-07-21T02:21:11.403Z,18.40
2018-07-21T02:23:39.796Z,18.30
2018-07-21T02:26:08.168Z,18.30
2018-07-21T02:28:36.556Z,18.40
2018-07-21T02:31:04.888Z,18.40
2018-07-21T02:36:01.417Z,18.40
2018-07-21T02:38:29.800Z,18.40
2018-07-21T02:40:58.180Z,18.50
2018-07-21T02:43:26.493Z,18.60
2018-07-21T02:45:54.870Z,18.60
2018-07-21T02:50:52.258Z,18.60
2018-07-21T02:53:21.217Z,18.60
2018-07-21T02:58:17.618Z,18.40
2018-07-21T03:00:46.560Z,18.30
2018-07-21T03:03:14.924Z,18.20
2018-07-21T03:05:43.393Z,18.20
2018-07-21T03:08:11.751Z,18.20
2018-07-21T03:10:40.144Z,18.20
2018-07-21T03:13:08.516Z,18.20
2018-07-21T03:15:36.973Z,18.20
2018-07-21T03:18:05.317Z,18.20
2018-07-21T03:23:01.745Z,18.20
2018-07-21T03:25:30.257Z,18.30
2018-07-21T03:27:58.591Z,18.30
2018-07-21T03:30:26.975Z,18.30
2018-07-21T03:32:55.343Z,18.30
2018-07-21T03:35:23.711Z,18.30
2018-07-21T03:37:52.067Z,18.20
2018-07-21T03:40:20.425Z,18.10
2018-07-21T03:42:48.796Z,18.20
2018-07-21T03:47:45.341Z,18.10
2018-07-21T03:50:13.669Z,18.20
2018-07-21T03:52:42.032Z,18.20
2018-07-21T03:55:10.409Z,18.20
2018-07-21T03:57:38.711Z,18.20
2018-07-21T04:00:07.142Z,18.00
2018-07-21T04:07:31.797Z,17.90
2018-07-21T04:10:00.143Z,17.90
2018-07-21T04:12:28.688Z,17.90
2018-07-21T04:14:57.025Z,17.90
2018-07-21T04:17:26.570Z,17.90
2018-07-21T04:19:55.843Z,17.90
2018-07-21T04:22:24.967Z,17.90
2018-07-21T04:24:53.545Z,17.90
2018-07-21T04:27:25.155Z,17.90
2018-07-21T04:32:21.809Z,18.00
2018-07-21T04:34:50.275Z,18.00
2018-07-21T04:39:46.673Z,18.00
2018-07-21T04:42:15.041Z,18.00
2018-07-21T04:44:43.511Z,18.10
2018-07-21T04:47:12.051Z,18.10
2018-07-21T04:49:40.483Z,18.10
2018-07-21T04:52:08.973Z,18.20
2018-07-21T04:54:37.356Z,18.20
2018-07-21T04:57:05.875Z,18.20
2018-07-21T05:02:02.515Z,18.30
2018-07-21T05:04:30.829Z,18.30
2018-07-21T05:09:27.275Z,18.40
2018-07-21T05:14:23.701Z,18.40
2018-07-21T05:16:52.063Z,18.40
2018-07-21T05:19:20.406Z,18.50
2018-07-21T05:21:48.781Z,18.40
2018-07-21T05:24:17.119Z,18.30
2018-07-21T05:26:45.492Z,18.30
2018-07-21T05:29:14.514Z,18.30
2018-07-21T05:31:42.877Z,18.30
2018-07-21T05:34:11.322Z,18.40
2018-07-21T05:36:39.698Z,18.40
2018-07-21T05:39:09.300Z,18.30
2018-07-21T05:41:37.635Z,18.30
2018-07-21T05:44:06.017Z,18.30
2018-07-21T05:46:34.928Z,18.30
2018-07-21T05:49:03.339Z,18.40
2018-07-21T05:51:31.699Z,18.30
2018-07-21T05:54:00.071Z,18.30
2018-07-21T05:56:28.630Z,18.20
2018-07-21T06:01:25.573Z,18.20
2018-07-21T06:03:53.919Z,18.20
2018-07-21T06:06:22.277Z,18.10
2018-07-21T06:08:51.415Z,18.10
2018-07-21T06:11:19.937Z,18.10
2018-07-21T06:13:48.255Z,18.10
2018-07-21T06:16:16.993Z,18.10
2018-07-21T06:18:45.449Z,18.10
2018-07-21T06:21:13.702Z,18.10
2018-07-21T06:23:42.731Z,18.10
2018-07-21T06:26:11.095Z,18.20
2018-07-21T06:28:39.655Z,18.10
2018-07-21T06:31:08.025Z,18.20
2018-07-21T06:33:36.418Z,18.20
2018-07-21T06:36:04.833Z,18.20
2018-07-21T06:41:01.302Z,18.40
2018-07-21T06:43:29.697Z,18.50
2018-07-21T06:45:58.081Z,18.40
2018-07-21T06:48:26.499Z,18.30
2018-07-21T06:50:54.876Z,18.30
2018-07-21T06:53:23.275Z,18.40
2018-07-21T06:55:51.686Z,18.40
2018-07-21T06:58:20.102Z,18.50
2018-07-21T07:00:48.432Z,18.60
2018-07-21T07:03:16.791Z,18.70
2018-07-21T07:05:45.170Z,18.60
2018-07-21T07:08:13.513Z,18.50
2018-07-21T07:10:41.852Z,18.50
2018-07-21T07:13:10.217Z,18.60
2018-07-21T07:15:38.604Z,18.60
2018-07-21T07:18:07.955Z,18.60
2018-07-21T07:20:36.328Z,18.60
2018-07-21T07:23:04.699Z,18.60
2018-07-21T07:25:33.725Z,18.60
2018-07-21T07:28:02.074Z,18.70
2018-07-21T07:30:30.448Z,18.70
2018-07-21T07:32:59.700Z,18.60
2018-07-21T07:37:56.100Z,18.80
2018-07-21T07:40:24.624Z,18.80
2018-07-21T07:42:53.012Z,18.90
2018-07-21T07:45:21.444Z,19.00
2018-07-21T07:47:49.945Z,19.10
2018-07-21T07:50:18.341Z,19.10
2018-07-21T07:52:46.754Z,19.10
2018-07-21T07:55:15.110Z,19.20
2018-07-21T08:00:11.564Z,19.10
2018-07-21T08:07:36.267Z,19.10
2018-07-21T08:10:05.083Z,19.20
2018-07-21T08:15:02.100Z,19.30
2018-07-21T08:17:30.571Z,19.30
2018-07-21T08:19:59.024Z,19.50
2018-07-21T08:22:30.164Z,19.50
2018-07-21T08:24:58.626Z,19.50
2018-07-21T08:27:27.668Z,19.50
2018-07-21T08:29:56.024Z,19.60
2018-07-21T08:32:24.404Z,19.70
2018-07-21T08:34:52.952Z,19.60
2018-07-21T08:37:21.544Z,19.80
2018-07-21T08:39:50.004Z,19.90
2018-07-21T08:42:18.384Z,19.90
2018-07-21T08:44:47.055Z,20.00
2018-07-21T08:47:15.828Z,19.90
2018-07-21T08:49:44.377Z,20.00
2018-07-21T08:52:12.873Z,20.10
2018-07-21T08:54:41.400Z,20.20
2018-07-21T08:57:09.872Z,20.40
2018-07-21T08:59:38.289Z,20.40
2018-07-21T09:02:07.060Z,20.60
2018-07-21T09:04:35.574Z,20.70
2018-07-21T09:07:04.004Z,20.90
2018-07-21T09:09:33.697Z,21.00
2018-07-21T09:12:02.769Z,21.20
2018-07-21T09:14:31.166Z,21.40
2018-07-21T09:16:59.628Z,21.40
2018-07-21T09:19:28.108Z,21.40
2018-07-21T09:21:56.836Z,21.20
2018-07-21T09:24:25.311Z,21.20
2018-07-21T09:26:53.983Z,21.30
2018-07-21T09:29:22.551Z,21.40
2018-07-21T09:31:50.964Z,21.40
2018-07-21T09:34:19.388Z,21.40
2018-07-21T09:36:48.152Z,21.40
2018-07-21T09:39:16.764Z,21.50
2018-07-21T09:41:45.233Z,21.50
2018-07-21T09:46:41.900Z,21.60
2018-07-21T09:49:10.499Z,21.70
2018-07-21T09:51:38.984Z,21.60
2018-07-21T09:54:08.262Z,21.60
2018-07-21T09:56:36.790Z,21.70
2018-07-21T09:59:06.724Z,21.80
2018-07-21T10:01:35.160Z,22.00
2018-07-21T10:04:03.516Z,22.00
2018-07-21T10:06:31.902Z,22.00
2018-07-21T10:09:00.299Z,22.10
2018-07-21T10:11:28.772Z,22.10
2018-07-21T10:13:57.120Z,22.20
2018-07-21T10:16:25.524Z,22.30
2018-07-21T10:18:53.889Z,22.40
2018-07-21T10:21:22.270Z,22.50
2018-07-21T10:23:50.636Z,22.60
2018-07-21T10:26:24.288Z,22.60
2018-07-21T10:28:57.937Z,22.80
2018-07-21T10:33:54.436Z,22.90
2018-07-21T10:36:22.780Z,22.90
2018-07-21T10:43:47.312Z,22.70
2018-07-21T10:48:43.923Z,22.70
2018-07-21T10:51:12.844Z,22.60
2018-07-21T10:53:41.253Z,22.70
2018-07-21T10:56:09.666Z,22.70
2018-07-21T10:58:38.090Z,22.60
2018-07-21T11:01:06.466Z,22.70
2018-07-21T11:03:34.846Z,22.80
2018-07-21T11:06:03.240Z,22.90
2018-07-21T11:08:32.088Z,22.90
2018-07-21T11:11:00.479Z,23.00
2018-07-21T11:13:28.894Z,23.10
2018-07-21T11:15:57.260Z,23.30
2018-07-21T11:18:25.724Z,23.40
2018-07-21T11:20:54.098Z,23.40
2018-07-21T11:23:22.476Z,23.30
2018-07-21T11:25:50.837Z,23.30
2018-07-21T11:28:19.445Z,23.30
2018-07-21T11:30:48.189Z,23.30
2018-07-21T11:33:16.541Z,23.20
2018-07-21T11:35:44.992Z,23.10
2018-07-21T11:38:13.274Z,23.20
2018-07-21T11:40:41.648Z,23.20
2018-07-21T11:43:10.072Z,23.20
2018-07-21T11:45:38.439Z,23.20
2018-07-21T11:48:06.822Z,23.10
2018-07-21T11:50:35.189Z,23.30
2018-07-21T11:53:03.530Z,23.40
2018-07-21T11:55:31.903Z,23.60
2018-07-21T11:58:00.259Z,24.10
2018-07-21T12:00:28.659Z,24.40
2018-07-21T12:02:57.113Z,24.60
2018-07-21T12:05:25.481Z,24.70
2018-07-21T12:07:54.192Z,25.00
2018-07-21T12:12:50.723Z,24.10
2018-07-21T12:15:19.129Z,24.10
2018-07-21T12:17:47.547Z,24.10
2018-07-21T12:20:16.010Z,23.90
2018-07-21T12:22:44.389Z,24.30
2018-07-21T12:25:12.797Z,24.80
2018-07-21T12:27:41.149Z,24.40
2018-07-21T12:30:09.499Z,24.40
2018-07-21T12:32:38.000Z,24.40
2018-07-21T12:35:07.042Z,24.40
2018-07-21T12:37:35.465Z,24.40
2018-07-21T12:40:03.910Z,24.20
2018-07-21T12:42:32.277Z,24.00
2018-07-21T12:45:00.669Z,24.10
2018-07-21T12:47:29.261Z,24.40
2018-07-21T12:49:57.688Z,24.50
2018-07-21T12:54:54.287Z,24.50
2018-07-21T12:57:22.785Z,24.60
2018-07-21T12:59:51.169Z,24.70
2018-07-21T13:02:19.788Z,24.20
2018-07-21T13:04:48.167Z,24.10
2018-07-21T13:07:18.303Z,24.40
2018-07-21T13:09:46.712Z,24.30
2018-07-21T13:12:15.135Z,24.20
2018-07-21T13:14:43.552Z,24.40
2018-07-21T13:17:11.943Z,24.40
2018-07-21T13:19:40.307Z,24.50
2018-07-21T13:22:08.889Z,24.50
2018-07-21T13:24:37.483Z,24.10
2018-07-21T13:27:05.975Z,24.20
2018-07-21T13:29:34.924Z,24.20
2018-07-21T13:32:03.309Z,24.10
2018-07-21T13:34:31.677Z,23.90
2018-07-21T13:37:00.044Z,23.90
2018-07-21T13:39:28.437Z,24.00
2018-07-21T13:41:56.813Z,23.90
2018-07-21T13:44:25.227Z,24.10
2018-07-21T13:46:53.544Z,24.20
2018-07-21T13:49:22.045Z,24.30
2018-07-21T13:51:50.434Z,24.30
2018-07-21T13:54:19.384Z,24.00
2018-07-21T13:56:47.729Z,23.90
2018-07-21T13:59:16.148Z,23.80
2018-07-21T14:01:44.542Z,23.80
2018-07-21T14:04:12.987Z,23.80
2018-07-21T14:06:41.462Z,23.80
2018-07-21T14:09:10.201Z,23.80
2018-07-21T14:11:38.848Z,23.80
2018-07-21T14:14:07.524Z,23.80
2018-07-21T14:16:35.912Z,23.80
2018-07-21T14:19:04.312Z,24.00
2018-07-21T14:21:32.728Z,24.10
2018-07-21T14:24:01.236Z,24.10
2018-07-21T14:26:29.509Z,24.10
2018-07-21T14:28:57.887Z,24.30
2018-07-21T14:31:26.316Z,24.50
2018-07-21T14:33:54.969Z,24.50
2018-07-21T14:36:23.504Z,24.30
2018-07-21T14:38:52.350Z,24.40
2018-07-21T14:41:20.791Z,24.40
2018-07-21T14:43:49.256Z,24.70
2018-07-21T14:48:45.817Z,25.30
2018-07-21T14:51:15.862Z,25.50
2018-07-21T14:53:44.384Z,25.60
2018-07-21T14:56:13.492Z,25.60
2018-07-21T14:58:42.040Z,25.50
2018-07-21T15:01:10.491Z,25.40
2018-07-21T15:03:38.920Z,25.40
2018-07-21T15:06:07.573Z,25.40
2018-07-21T15:08:35.956Z,25.20
2018-07-21T15:11:04.411Z,25.00
2018-07-21T15:13:32.881Z,24.80
2018-07-21T15:16:01.259Z,25.10
2018-07-21T15:20:57.668Z,25.30
2018-07-21T15:23:26.657Z,25.30
2018-07-21T15:25:55.071Z,25.20
2018-07-21T15:30:51.729Z,25.20
2018-07-21T15:33:20.095Z,25.10
2018-07-21T15:35:48.456Z,25.20
2018-07-21T15:38:16.824Z,25.10
2018-07-21T15:40:45.202Z,25.20
2018-07-21T15:43:13.582Z,25.10
2018-07-21T15:45:41.990Z,25.20
2018-07-21T15:48:10.323Z,25.30
2018-07-21T15:50:39.396Z,25.40
2018-07-21T15:53:07.852Z,25.40
2018-07-21T15:58:04.473Z,25.60
2018-07-21T16:00:32.825Z,25.60
2018-07-21T16:03:01.211Z,25.90
2018-07-21T16:05:29.676Z,26.00
2018-07-21T16:07:58.641Z,26.10
2018-07-21T16:10:27.065Z,26.30
2018-07-21T16:12:55.458Z,25.90
2018-07-21T16:15:23.953Z,26.00
2018-07-21T16:17:52.256Z,26.00
2018-07-21T16:22:48.902Z,25.60
2018-07-21T16:25:17.310Z,25.60
2018-07-21T16:27:45.900Z,25.50
2018-07-21T16:30:14.306Z,25.60
2018-07-21T16:32:42.664Z,25.70
2018-07-21T16:35:11.191Z,25.70
2018-07-21T16:37:40.160Z,25.70
2018-07-21T16:40:08.773Z,25.70
2018-07-21T16:42:37.082Z,25.70
2018-07-21T16:45:05.554Z,25.70
2018-07-21T16:47:34.029Z,25.60
2018-07-21T16:52:30.490Z,25.30
2018-07-21T16:59:55.222Z,25.20
2018-07-21T17:02:23.520Z,25.10
2018-07-21T17:04:51.912Z,25.00
2018-07-21T17:07:20.279Z,24.90
2018-07-21T17:09:48.633Z,25.00
2018-07-21T17:12:17.002Z,25.00
2018-07-21T17:14:45.395Z,25.00
2018-07-21T17:17:14.054Z,24.90
2018-07-21T17:19:42.605Z,24.90
2018-07-21T17:22:11.139Z,24.80
2018-07-21T17:24:39.485Z,24.80
2018-07-21T17:27:07.869Z,24.60
2018-07-21T17:29:36.271Z,24.50
2018-07-21T17:32:05.341Z,24.40
2018-07-21T17:34:33.689Z,24.40
2018-07-21T17:37:02.768Z,24.30
2018-07-21T17:39:31.121Z,24.20
2018-07-21T17:41:59.476Z,24.10
2018-07-21T17:44:27.867Z,24.20
2018-07-21T17:46:56.234Z,24.20
2018-07-21T17:49:24.760Z,24.20
2018-07-21T17:51:53.063Z,24.20
2018-07-21T17:54:21.938Z,24.10
2018-07-21T17:56:50.339Z,24.10
2018-07-21T17:59:18.814Z,24.10
2018-07-21T18:01:47.309Z,24.00
2018-07-21T18:04:15.657Z,23.90
2018-07-21T18:06:44.113Z,23.80
2018-07-21T18:09:12.487Z,23.70
2018-07-21T18:11:40.913Z,23.70
2018-07-21T18:14:09.363Z,23.60
2018-07-21T18:16:37.700Z,23.10
2018-07-21T18:19:06.082Z,22.80
2018-07-21T18:21:34.490Z,22.50
2018-07-21T18:24:02.812Z,22.20
2018-07-21T18:26:31.765Z,22.00
2018-07-21T18:29:00.789Z,21.80
2018-07-21T18:31:29.132Z,21.70
2018-07-21T18:33:57.555Z,21.50
2018-07-21T18:36:25.914Z,21.40
2018-07-21T18:38:54.297Z,21.30
2018-07-21T18:41:22.677Z,21.20
2018-07-21T18:43:51.059Z,21.20
2018-07-21T18:46:19.444Z,21.00
2018-07-21T18:48:47.783Z,20.90
2018-07-21T18:51:16.346Z,20.90
2018-07-21T18:58:59.373Z,21.00
2018-07-21T19:01:27.767Z,21.00
2018-07-21T19:03:56.807Z,20.90
2018-07-21T19:06:25.155Z,21.00
2018-07-21T19:08:58.773Z,20.90
2018-07-21T19:11:27.136Z,20.90
2018-07-21T19:13:55.568Z,21.00
2018-07-21T19:16:29.397Z,20.90
2018-07-21T19:18:57.797Z,20.90
2018-07-21T19:21:26.359Z,20.80
2018-07-21T19:23:54.691Z,20.60
2018-07-21T19:26:28.356Z,20.50
2018-07-21T19:28:56.765Z,20.40
2018-07-21T19:31:25.283Z,20.40
2018-07-21T19:33:54.342Z,20.50
2018-07-21T19:36:22.730Z,20.50
2018-07-21T19:38:51.065Z,20.50
2018-07-21T19:43:52.937Z,20.40
2018-07-21T19:46:21.515Z,20.40
2018-07-21T19:48:49.880Z,20.40
2018-07-21T19:51:18.892Z,20.30
2018-07-21T19:53:48.131Z,20.30
2018-07-21T19:56:16.495Z,20.30
2018-07-21T19:58:44.857Z,20.30
2018-07-21T20:01:13.259Z,20.20
2018-07-21T20:03:41.666Z,20.20
2018-07-21T20:06:10.154Z,20.20
2018-07-21T20:08:38.571Z,20.20
2018-07-21T20:11:06.898Z,20.20
2018-07-21T20:13:35.293Z,20.20
2018-07-21T20:16:03.621Z,20.20
2018-07-21T20:18:32.017Z,20.20
2018-07-21T20:25:56.702Z,20.20
2018-07-21T20:30:54.085Z,20.00
2018-07-21T20:33:22.477Z,20.00
2018-07-21T20:35:50.806Z,20.00
2018-07-21T20:38:19.263Z,19.90
2018-07-21T20:40:47.631Z,19.80
2018-07-21T20:43:16.030Z,19.60
2018-07-21T20:45:44.375Z,19.50
2018-07-21T20:48:12.768Z,19.50
2018-07-21T20:50:41.423Z,19.50
2018-07-21T20:53:09.801Z,19.50
2018-07-21T20:55:38.531Z,19.50
2018-07-21T20:58:06.978Z,19.50
2018-07-21T21:00:35.350Z,19.40
2018-07-21T21:03:03.745Z,19.40
2018-07-21T21:08:01.096Z,19.40
2018-07-21T21:10:29.447Z,19.30
2018-07-21T21:12:57.818Z,19.30
2018-07-21T21:15:26.185Z,19.20
2018-07-21T21:17:54.571Z,19.20
2018-07-21T21:20:22.957Z,19.20
2018-07-21T21:22:51.515Z,19.20
2018-07-21T21:25:19.822Z,19.10
2018-07-21T21:27:48.206Z,19.10
2018-07-21T21:30:16.591Z,19.10
2018-07-21T21:32:44.973Z,19.00
2018-07-21T21:35:13.335Z,19.00
2018-07-21T21:37:41.708Z,18.90
2018-07-21T21:40:10.244Z,18.90
2018-07-21T21:42:38.609Z,18.80
2018-07-21T21:45:06.997Z,18.80
2018-07-21T21:47:35.345Z,18.80
2018-07-21T21:50:03.741Z,18.70
2018-07-21T21:52:32.116Z,18.70
2018-07-21T21:55:00.454Z,18.60
2018-07-21T21:57:29.192Z,18.60
2018-07-21T21:59:57.594Z,18.50
2018-07-21T22:02:26.543Z,18.50
2018-07-21T22:04:54.921Z,18.40
2018-07-21T22:07:23.274Z,18.40
2018-07-21T22:09:51.704Z,18.30
2018-07-21T22:12:20.096Z,18.30
2018-07-21T22:14:48.580Z,18.30
2018-07-21T22:19:45.286Z,18.20
2018-07-21T22:22:13.689Z,18.20
2018-07-21T22:24:42.188Z,18.20
2018-07-21T22:27:10.571Z,18.10
2018-07-21T22:29:39.088Z,18.10
2018-07-21T22:32:07.444Z,18.10
2018-07-21T22:34:35.816Z,18.00
2018-07-21T22:37:04.300Z,18.00
2018-07-21T22:42:00.762Z,17.90
2018-07-21T22:44:29.146Z,17.90
2018-07-21T22:49:26.048Z,17.90
2018-07-21T22:51:54.400Z,17.80
2018-07-21T22:54:22.784Z,17.80
2018-07-21T22:56:51.142Z,17.70
2018-07-21T22:59:19.590Z,17.70
2018-07-21T23:01:47.940Z,17.60
2018-07-21T23:04:16.282Z,17.60
2018-07-21T23:06:44.636Z,17.60
2018-07-21T23:09:13.012Z,17.50
2018-07-21T23:11:41.392Z,17.40
2018-07-21T23:14:09.824Z,17.40
2018-07-21T23:16:38.217Z,17.30
2018-07-21T23:19:06.687Z,17.20
2018-07-21T23:21:35.028Z,17.00
2018-07-21T23:24:03.505Z,17.00
2018-07-21T23:26:31.858Z,16.90
2018-07-21T23:29:00.212Z,17.00
2018-07-21T23:31:28.587Z,17.00
2018-07-21T23:33:56.947Z,17.00
2018-07-21T23:36:25.289Z,17.00
2018-07-21T23:38:53.752Z,17.00
2018-07-21T23:41:22.073Z,17.10
2018-07-21T23:43:50.417Z,17.20
2018-07-21T23:46:18.789Z,17.20
2018-07-21T23:48:47.137Z,17.30
2018-07-21T23:51:15.581Z,17.30
2018-07-21T23:53:43.923Z,17.30
2018-07-21T23:56:12.369Z,17.30
2018-07-21T23:58:40.759Z,17.30
